createdAt,value
2022-09-18T00:02:01.267Z,9.55
2022-09-18T00:04:30.927Z,9.53
2022-09-18T00:07:00.188Z,9.43
2022-09-18T00:09:29.259Z,9.41
2022-09-18T00:12:00.132Z,9.33
2022-09-18T00:14:29.104Z,9.44
2022-09-18T00:16:58.199Z,9.61
2022-09-18T00:19:27.289Z,9.63
2022-09-18T00:21:56.319Z,9.70
2022-09-18T00:24:25.333Z,9.76
2022-09-18T00:26:54.352Z,9.72
2022-09-18T00:29:24.677Z,9.79
2022-09-18T00:31:53.649Z,9.97
2022-09-18T00:34:22.755Z,9.97
2022-09-18T00:36:51.711Z,10.04
2022-09-18T00:39:20.738Z,10.05
2022-09-18T00:41:49.932Z,10.07
2022-09-18T00:44:36.841Z,10.00
2022-09-18T00:47:36.165Z,9.98
2022-09-18T00:50:11.930Z,9.96
2022-09-18T00:52:51.292Z,9.98
2022-09-18T00:55:24.885Z,10.00
2022-09-18T00:57:56.663Z,10.04
2022-09-18T01:00:27.480Z,9.98
2022-09-18T01:02:56.998Z,10.03
2022-09-18T01:05:36.347Z,10.03
2022-09-18T01:08:16.933Z,10.05
2022-09-18T01:11:01.730Z,10.03
2022-09-18T01:13:42.529Z,10.11
2022-09-18T01:16:20.962Z,10.08
2022-09-18T01:18:58.090Z,10.11
2022-09-18T01:21:34.142Z,10.04
2022-09-18T01:24:34.976Z,9.98
2022-09-18T01:27:07.236Z,10.01
2022-09-18T01:29:48.875Z,9.85
2022-09-18T01:32:27.786Z,9.81
2022-09-18T01:35:10.128Z,9.80
2022-09-18T01:37:54.135Z,9.87
2022-09-18T01:40:29.661Z,9.87
2022-09-18T01:43:03.771Z,9.84
2022-09-18T01:45:38.750Z,9.73
2022-09-18T01:48:11.762Z,9.60
2022-09-18T01:50:48.419Z,9.55
2022-09-18T01:53:23.253Z,9.48
2022-09-18T01:55:57.715Z,9.35
2022-09-18T01:58:30.064Z,9.39
2022-09-18T02:01:06.667Z,9.44
2022-09-18T02:03:40.432Z,9.38
2022-09-18T02:06:14.415Z,9.34
2022-09-18T02:08:47.835Z,9.35
2022-09-18T02:11:19.306Z,9.29
2022-09-18T02:13:54.738Z,9.22
2022-09-18T02:16:36.989Z,9.23
2022-09-18T02:19:11.866Z,9.30
2022-09-18T02:21:42.672Z,9.42
2022-09-18T02:24:15.655Z,9.34
2022-09-18T02:26:47.375Z,9.30
2022-09-18T02:29:18.847Z,9.32
2022-09-18T02:31:50.441Z,9.33
2022-09-18T02:34:21.054Z,9.22
2022-09-18T02:37:08.883Z,9.16
2022-09-18T02:39:50.227Z,9.07
2022-09-18T02:42:34.495Z,9.06
2022-09-18T02:45:12.335Z,9.17
2022-09-18T02:47:55.159Z,9.11
2022-09-18T02:50:33.896Z,9.13
2022-09-18T02:53:07.032Z,9.10
2022-09-18T02:55:44.823Z,9.08
2022-09-18T02:58:21.830Z,9.05
2022-09-18T03:00:55.924Z,8.98
2022-09-18T03:03:31.734Z,8.92
2022-09-18T03:06:04.734Z,8.81
2022-09-18T03:08:36.776Z,8.84
2022-09-18T03:11:07.599Z,8.69
2022-09-18T03:13:36.868Z,8.72
2022-09-18T03:16:06.071Z,8.62
2022-09-18T03:18:36.561Z,8.57
2022-09-18T03:21:06.330Z,8.63
2022-09-18T03:23:35.389Z,8.62
2022-09-18T03:26:15.452Z,8.71
2022-09-18T03:28:44.951Z,8.72
2022-09-18T03:31:15.759Z,8.74
2022-09-18T03:33:47.604Z,8.70
2022-09-18T03:36:16.540Z,8.71
2022-09-18T03:38:46.196Z,8.80
2022-09-18T03:41:15.396Z,8.93
2022-09-18T03:43:44.700Z,8.85
2022-09-18T03:46:15.043Z,8.86
2022-09-18T03:48:44.222Z,8.94
2022-09-18T03:51:14.449Z,8.82
2022-09-18T03:53:43.418Z,8.84
2022-09-18T03:56:30.324Z,9.01
2022-09-18T03:59:14.982Z,9.08
2022-09-18T04:02:06.846Z,9.11
2022-09-18T04:05:08.782Z,9.10
2022-09-18T04:08:17.199Z,9.07
2022-09-18T04:11:09.668Z,8.94
2022-09-18T04:13:38.718Z,8.87
2022-09-18T04:16:11.041Z,8.81
2022-09-18T04:18:40.264Z,8.81
2022-09-18T04:21:10.721Z,8.72
2022-09-18T04:23:41.086Z,8.64
2022-09-18T04:26:10.427Z,8.60
2022-09-18T04:28:46.995Z,8.56
2022-09-18T04:31:16.864Z,8.64
2022-09-18T04:33:46.277Z,8.68
2022-09-18T04:36:15.280Z,8.73
2022-09-18T04:38:45.704Z,8.88
2022-09-18T04:41:14.661Z,8.89
2022-09-18T04:43:45.268Z,8.91
2022-09-18T04:46:15.490Z,8.99
2022-09-18T04:48:49.243Z,8.93
2022-09-18T04:51:24.495Z,8.97
2022-09-18T04:53:56.207Z,8.95
2022-09-18T04:56:26.228Z,8.91
2022-09-18T04:58:56.385Z,8.89
2022-09-18T05:01:25.362Z,8.94
2022-09-18T05:03:54.412Z,8.91
2022-09-18T05:06:37.636Z,8.84
2022-09-18T05:09:08.071Z,8.86
2022-09-18T05:11:37.054Z,8.90
2022-09-18T05:14:07.017Z,8.96
2022-09-18T05:16:36.712Z,8.91
2022-09-18T05:19:35.661Z,8.93
2022-09-18T05:22:09.845Z,8.92
2022-09-18T05:24:44.287Z,8.94
2022-09-18T05:27:15.450Z,8.89
2022-09-18T05:29:45.110Z,8.93
2022-09-18T05:32:20.231Z,8.90
2022-09-18T05:34:50.170Z,8.99
2022-09-18T05:37:20.207Z,8.96
2022-09-18T05:39:56.421Z,9.08
2022-09-18T05:42:25.364Z,9.12
2022-09-18T05:44:55.897Z,9.15
2022-09-18T05:47:29.456Z,9.16
2022-09-18T05:49:58.361Z,9.11
2022-09-18T05:52:27.286Z,9.06
2022-09-18T05:54:57.788Z,9.09
2022-09-18T05:57:26.752Z,9.01
2022-09-18T05:59:55.972Z,8.98
2022-09-18T06:02:24.941Z,8.98
2022-09-18T06:05:02.090Z,9.02
2022-09-18T06:07:32.166Z,9.08
2022-09-18T06:10:03.432Z,9.24
2022-09-18T06:12:33.455Z,9.47
2022-09-18T06:15:04.178Z,9.32
2022-09-18T06:17:33.301Z,9.30
2022-09-18T06:20:06.822Z,9.24
2022-09-18T06:22:36.697Z,9.37
2022-09-18T06:25:08.208Z,9.41
2022-09-18T06:27:37.368Z,9.38
2022-09-18T06:30:07.517Z,9.53
2022-09-18T06:32:37.837Z,9.46
2022-09-18T06:35:07.965Z,9.38
2022-09-18T06:37:37.478Z,9.44
2022-09-18T06:40:15.641Z,9.37
2022-09-18T06:43:17.195Z,9.69
2022-09-18T06:46:04.400Z,9.40
2022-09-18T06:48:39.982Z,9.41
2022-09-18T06:51:10.749Z,9.37
2022-09-18T06:54:00.236Z,9.35
2022-09-18T06:56:30.641Z,9.56
2022-09-18T06:58:59.561Z,9.66
2022-09-18T07:01:28.834Z,9.62
2022-09-18T07:04:08.791Z,9.68
2022-09-18T07:06:44.457Z,9.77
2022-09-18T07:09:13.889Z,10.01
2022-09-18T07:11:57.968Z,9.94
2022-09-18T07:14:44.179Z,9.86
2022-09-18T07:17:18.217Z,9.88
2022-09-18T07:19:50.860Z,10.09
2022-09-18T07:22:24.223Z,10.43
2022-09-18T07:24:53.776Z,10.36
2022-09-18T07:27:25.405Z,9.85
2022-09-18T07:29:57.059Z,10.47
2022-09-18T07:32:26.878Z,10.49
2022-09-18T07:34:56.293Z,10.70
2022-09-18T07:37:30.261Z,10.19
2022-09-18T07:40:14.048Z,10.05
2022-09-18T07:43:00.853Z,9.94
2022-09-18T07:45:31.088Z,9.86
2022-09-18T07:48:03.584Z,10.10
2022-09-18T07:50:35.968Z,10.22
2022-09-18T07:53:09.375Z,10.58
2022-09-18T07:55:47.335Z,10.72
2022-09-18T07:58:18.277Z,10.80
2022-09-18T08:01:02.872Z,11.10
2022-09-18T08:03:34.257Z,10.89
2022-09-18T08:06:24.767Z,11.42
2022-09-18T08:09:09.179Z,11.58
2022-09-18T08:11:56.132Z,11.46
2022-09-18T08:14:45.065Z,10.92
2022-09-18T08:17:34.363Z,10.54
2022-09-18T08:20:21.823Z,11.15
2022-09-18T08:22:54.177Z,11.96
2022-09-18T08:25:28.391Z,11.54
2022-09-18T08:28:02.218Z,11.66
2022-09-18T08:30:52.723Z,11.74
2022-09-18T08:33:21.834Z,11.54
2022-09-18T08:35:51.266Z,11.23
2022-09-18T08:38:27.403Z,10.95
2022-09-18T08:41:36.741Z,10.68
2022-09-18T08:44:11.467Z,10.57
2022-09-18T08:46:49.543Z,10.47
2022-09-18T08:49:25.727Z,10.46
2022-09-18T08:52:04.658Z,11.41
2022-09-18T08:54:45.264Z,12.02
2022-09-18T08:57:38.372Z,12.18
2022-09-18T09:00:20.577Z,12.84
2022-09-18T09:03:23.945Z,12.43
2022-09-18T09:05:58.025Z,12.54
2022-09-18T09:09:01.700Z,12.47
2022-09-18T09:11:42.598Z,12.08
2022-09-18T09:14:52.876Z,12.63
2022-09-18T09:17:25.841Z,12.45
2022-09-18T09:20:07.777Z,12.21
2022-09-18T09:22:43.560Z,13.02
2022-09-18T09:25:20.363Z,13.53
2022-09-18T09:28:16.678Z,14.32
2022-09-18T09:31:18.811Z,13.66
2022-09-18T09:34:16.606Z,13.34
2022-09-18T09:36:57.629Z,13.58
2022-09-18T09:39:33.557Z,14.74
2022-09-18T09:42:07.886Z,14.09
2022-09-18T09:44:40.847Z,14.03
2022-09-18T09:47:24.680Z,14.78
2022-09-18T09:50:07.231Z,14.78
2022-09-18T09:52:41.105Z,14.71
2022-09-18T09:55:30.822Z,14.76
2022-09-18T09:58:13.453Z,15.23
2022-09-18T10:00:52.136Z,14.77
2022-09-18T10:03:35.784Z,15.49
2022-09-18T10:06:17.334Z,15.01
2022-09-18T10:08:55.918Z,14.55
2022-09-18T10:11:25.607Z,14.88
2022-09-18T10:14:03.504Z,15.18
2022-09-18T10:16:37.878Z,14.86
2022-09-18T10:19:15.719Z,15.57
2022-09-18T10:21:45.439Z,14.91
2022-09-18T10:24:22.731Z,15.24
2022-09-18T10:26:58.252Z,15.52
2022-09-18T10:29:27.443Z,15.18
2022-09-18T10:32:02.086Z,15.20
2022-09-18T10:34:40.392Z,14.94
2022-09-18T10:37:16.994Z,15.67
2022-09-18T10:39:53.613Z,15.80
2022-09-18T10:42:26.615Z,14.46
2022-09-18T10:45:06.173Z,15.17
2022-09-18T10:47:38.821Z,14.08
2022-09-18T10:50:19.366Z,13.72
2022-09-18T10:52:53.994Z,13.16
2022-09-18T10:55:32.817Z,12.25
2022-09-18T10:58:14.219Z,11.42
2022-09-18T11:00:56.298Z,11.14
2022-09-18T11:03:41.769Z,11.17
2022-09-18T11:06:23.896Z,11.14
2022-09-18T11:08:57.058Z,12.21
2022-09-18T11:11:31.289Z,12.60
2022-09-18T11:14:07.973Z,13.87
2022-09-18T11:16:57.620Z,13.72
2022-09-18T11:19:30.720Z,14.15
2022-09-18T11:22:04.340Z,13.42
2022-09-18T11:24:42.974Z,14.37
2022-09-18T11:27:22.386Z,15.04
2022-09-18T11:30:13.919Z,15.19
2022-09-18T11:32:47.412Z,15.18
2022-09-18T11:35:20.304Z,14.92
2022-09-18T11:37:53.887Z,15.32
2022-09-18T11:40:26.266Z,15.57
2022-09-18T11:42:57.898Z,14.38
2022-09-18T11:45:45.944Z,13.47
2022-09-18T11:48:28.290Z,12.10
2022-09-18T11:51:03.430Z,10.52
2022-09-18T11:53:40.354Z,10.35
2022-09-18T11:56:16.372Z,10.32
2022-09-18T11:58:54.869Z,10.50
2022-09-18T12:01:34.085Z,10.50
2022-09-18T12:04:14.196Z,10.66
2022-09-18T12:06:52.125Z,10.67
2022-09-18T12:09:26.440Z,10.45
2022-09-18T12:12:02.797Z,11.23
2022-09-18T12:14:41.173Z,12.46
2022-09-18T12:17:23.603Z,12.09
2022-09-18T12:19:56.069Z,12.75
2022-09-18T12:22:32.253Z,12.57
2022-09-18T12:25:10.723Z,13.77
2022-09-18T12:28:14.378Z,13.35
2022-09-18T12:30:54.648Z,13.55
2022-09-18T12:33:39.155Z,13.24
2022-09-18T12:36:41.577Z,13.04
2022-09-18T12:39:36.205Z,12.85
2022-09-18T12:42:19.839Z,12.18
2022-09-18T12:45:18.870Z,12.22
2022-09-18T12:48:14.984Z,11.84
2022-09-18T12:51:05.056Z,11.39
2022-09-18T12:53:45.871Z,11.19
2022-09-18T12:56:32.132Z,10.95
2022-09-18T12:59:31.129Z,11.24
2022-09-18T13:02:10.260Z,11.36
2022-09-18T13:04:46.796Z,11.24
2022-09-18T13:07:21.155Z,11.50
2022-09-18T13:10:00.212Z,11.75
2022-09-18T13:12:34.833Z,12.09
2022-09-18T13:15:14.121Z,12.15
2022-09-18T13:17:48.815Z,11.44
2022-09-18T13:20:24.887Z,11.26
2022-09-18T13:22:55.272Z,11.28
2022-09-18T13:25:29.341Z,11.06
2022-09-18T13:28:00.745Z,11.03
2022-09-18T13:30:31.412Z,11.08
2022-09-18T13:33:03.713Z,11.03
2022-09-18T13:35:35.981Z,11.23
2022-09-18T13:38:16.352Z,11.17
2022-09-18T13:40:47.795Z,11.25
2022-09-18T13:43:23.084Z,11.22
2022-09-18T13:45:52.800Z,11.23
2022-09-18T13:48:26.933Z,11.16
2022-09-18T13:51:01.343Z,11.11
2022-09-18T13:53:40.297Z,11.07
2022-09-18T13:56:12.842Z,11.08
2022-09-18T13:58:57.841Z,10.97
2022-09-18T14:02:02.470Z,10.88
2022-09-18T14:04:50.996Z,10.98
2022-09-18T14:07:56.734Z,10.67
2022-09-18T14:10:30.288Z,10.42
2022-09-18T14:13:32.538Z,10.36
2022-09-18T14:16:06.882Z,10.31
2022-09-18T14:18:40.955Z,10.62
2022-09-18T14:21:25.181Z,10.51
2022-09-18T14:24:36.535Z,10.56
2022-09-18T14:27:37.988Z,10.58
2022-09-18T14:30:22.616Z,10.80
2022-09-18T14:33:03.259Z,10.50
2022-09-18T14:35:42.027Z,10.63
2022-09-18T14:38:28.309Z,11.48
2022-09-18T14:41:09.315Z,12.53
2022-09-18T14:43:40.829Z,12.81
2022-09-18T14:46:19.933Z,12.60
2022-09-18T14:48:49.299Z,12.64
2022-09-18T14:51:21.167Z,12.17
2022-09-18T14:53:52.700Z,11.95
2022-09-18T14:56:28.657Z,12.24
2022-09-18T14:59:00.168Z,12.53
2022-09-18T15:01:31.234Z,12.51
2022-09-18T15:04:03.241Z,12.23
2022-09-18T15:06:39.653Z,12.11
2022-09-18T15:09:12.958Z,11.99
2022-09-18T15:12:01.468Z,12.73
2022-09-18T15:14:41.815Z,12.10
2022-09-18T15:17:19.702Z,13.00
2022-09-18T15:19:59.981Z,13.40
2022-09-18T15:22:30.491Z,13.06
2022-09-18T15:25:01.946Z,13.10
2022-09-18T15:27:33.043Z,12.97
2022-09-18T15:30:05.733Z,13.40
2022-09-18T15:32:39.771Z,12.26
2022-09-18T15:35:15.805Z,12.18
2022-09-18T15:37:54.739Z,12.89
2022-09-18T15:40:29.061Z,13.28
2022-09-18T15:43:04.732Z,14.05
2022-09-18T15:45:36.114Z,13.02
2022-09-18T15:48:35.248Z,13.30
2022-09-18T15:51:09.604Z,13.61
2022-09-18T15:53:38.703Z,12.88
2022-09-18T15:56:11.024Z,12.70
2022-09-18T15:58:51.456Z,11.99
2022-09-18T16:01:27.255Z,11.63
2022-09-18T16:04:06.675Z,11.62
2022-09-18T16:06:43.499Z,11.56
2022-09-18T16:09:33.686Z,11.65
2022-09-18T16:12:02.866Z,11.56
2022-09-18T16:14:47.599Z,11.33
2022-09-18T16:17:39.791Z,11.49
2022-09-18T16:20:33.834Z,11.45
2022-09-18T16:23:20.833Z,11.40
2022-09-18T16:26:11.422Z,11.30
2022-09-18T16:28:44.011Z,11.49
2022-09-18T16:31:16.687Z,11.67
2022-09-18T16:33:55.269Z,11.67
2022-09-18T16:36:28.980Z,11.58
2022-09-18T16:39:00.608Z,11.53
2022-09-18T16:41:30.363Z,11.32
2022-09-18T16:44:00.108Z,11.22
2022-09-18T16:46:35.544Z,11.11
2022-09-18T16:49:04.605Z,11.06
2022-09-18T16:51:34.090Z,10.98
2022-09-18T16:54:03.352Z,10.78
2022-09-18T16:56:38.879Z,10.68
2022-09-18T16:59:08.577Z,10.59
2022-09-18T17:02:02.433Z,10.58
2022-09-18T17:04:29.656Z,10.43
2022-09-18T17:06:59.026Z,10.44
2022-09-18T17:09:28.750Z,10.30
2022-09-18T17:12:01.541Z,10.32
2022-09-18T17:14:30.724Z,10.25
2022-09-18T17:17:05.895Z,10.23
2022-09-18T17:19:36.968Z,10.15
2022-09-18T17:22:08.755Z,10.08
2022-09-18T17:24:38.054Z,10.07
2022-09-18T17:27:07.008Z,10.13
2022-09-18T17:29:36.208Z,10.09
2022-09-18T17:32:07.669Z,10.10
2022-09-18T17:34:36.921Z,10.12
2022-09-18T17:37:06.293Z,10.09
2022-09-18T17:39:35.474Z,10.12
2022-09-18T17:42:04.933Z,10.08
2022-09-18T17:44:35.303Z,10.06
2022-09-18T17:47:05.914Z,9.91
2022-09-18T17:49:35.295Z,9.98
2022-09-18T17:52:05.442Z,9.92
2022-09-18T17:54:35.989Z,9.78
2022-09-18T17:57:11.431Z,9.85
2022-09-18T17:59:41.453Z,9.75
2022-09-18T18:02:14.074Z,9.67
2022-09-18T18:04:43.234Z,9.54
2022-09-18T18:07:12.503Z,9.60
2022-09-18T18:09:41.837Z,9.57
2022-09-18T18:12:11.051Z,9.45
2022-09-18T18:14:41.603Z,9.39
2022-09-18T18:17:12.896Z,9.37
2022-09-18T18:19:42.634Z,9.38
2022-09-18T18:22:14.088Z,9.32
2022-09-18T18:24:43.120Z,9.20
2022-09-18T18:27:19.938Z,9.15
2022-09-18T18:29:53.528Z,9.13
2022-09-18T18:32:25.589Z,9.09
2022-09-18T18:34:55.476Z,9.01
2022-09-18T18:37:24.673Z,9.03
2022-09-18T18:39:54.135Z,9.01
2022-09-18T18:42:23.315Z,9.03
2022-09-18T18:44:52.878Z,8.99
2022-09-18T18:47:23.698Z,8.96
2022-09-18T18:49:54.500Z,8.97
2022-09-18T18:52:23.635Z,8.93
2022-09-18T18:54:55.486Z,8.89
2022-09-18T18:57:24.610Z,8.89
2022-09-18T18:59:53.810Z,8.90
2022-09-18T19:02:24.781Z,8.93
2022-09-18T19:05:02.686Z,8.91
2022-09-18T19:07:32.437Z,8.87
2022-09-18T19:10:02.173Z,8.87
2022-09-18T19:12:32.298Z,8.92
2022-09-18T19:15:01.440Z,8.94
2022-09-18T19:17:31.952Z,9.00
2022-09-18T19:20:01.116Z,8.99
2022-09-18T19:22:30.138Z,9.01
2022-09-18T19:25:01.104Z,9.07
2022-09-18T19:27:30.740Z,9.10
2022-09-18T19:29:59.746Z,9.14
2022-09-18T19:32:29.407Z,9.16
2022-09-18T19:35:00.441Z,9.22
2022-09-18T19:37:30.821Z,9.22
2022-09-18T19:39:59.927Z,9.26
2022-09-18T19:42:32.612Z,9.28
2022-09-18T19:45:04.227Z,9.33
2022-09-18T19:47:40.889Z,9.28
2022-09-18T19:50:21.310Z,9.31
2022-09-18T19:52:51.514Z,9.29
2022-09-18T19:55:21.646Z,9.33
2022-09-18T19:57:53.871Z,9.28
2022-09-18T20:00:23.313Z,9.32
2022-09-18T20:02:54.073Z,9.32
2022-09-18T20:05:26.142Z,9.25
2022-09-18T20:07:55.399Z,9.19
2022-09-18T20:10:25.392Z,9.16
2022-09-18T20:12:54.658Z,9.18
2022-09-18T20:15:23.659Z,9.18
2022-09-18T20:17:52.768Z,9.26
2022-09-18T20:20:23.727Z,9.33
2022-09-18T20:22:56.899Z,9.36
2022-09-18T20:25:26.089Z,9.43
2022-09-18T20:27:55.614Z,9.43
2022-09-18T20:30:26.621Z,9.44
2022-09-18T20:32:55.690Z,9.43
2022-09-18T20:35:26.908Z,9.46
2022-09-18T20:37:59.890Z,9.36
2022-09-18T20:40:29.111Z,9.34
2022-09-18T20:42:58.347Z,9.33
2022-09-18T20:45:28.250Z,9.29
2022-09-18T20:48:04.140Z,9.31
2022-09-18T20:50:35.295Z,9.34
2022-09-18T20:53:08.994Z,9.35
2022-09-18T20:55:37.978Z,9.40
2022-09-18T20:58:06.997Z,9.46
2022-09-18T21:00:37.815Z,9.50
2022-09-18T21:03:07.197Z,9.54
2022-09-18T21:05:41.128Z,9.57
2022-09-18T21:08:10.661Z,9.63
2022-09-18T21:10:46.626Z,9.61
2022-09-18T21:13:17.287Z,9.61
2022-09-18T21:15:48.622Z,9.62
2022-09-18T21:18:19.399Z,9.61
2022-09-18T21:20:49.673Z,9.66
2022-09-18T21:23:36.145Z,9.67
2022-09-18T21:26:17.329Z,9.70
2022-09-18T21:28:46.618Z,9.71
2022-09-18T21:31:15.641Z,9.69
2022-09-18T21:33:44.679Z,9.69
2022-09-18T21:36:15.347Z,9.73
2022-09-18T21:38:44.892Z,9.70
2022-09-18T21:41:14.454Z,9.66
2022-09-18T21:43:44.781Z,9.59
2022-09-18T21:46:17.499Z,9.50
2022-09-18T21:48:48.303Z,9.44
2022-09-18T21:51:19.124Z,9.40
2022-09-18T21:53:48.223Z,9.29
2022-09-18T21:56:19.887Z,9.27
2022-09-18T21:58:50.306Z,9.22
2022-09-18T22:01:21.294Z,9.13
2022-09-18T22:03:52.292Z,9.12
2022-09-18T22:06:24.502Z,9.03
2022-09-18T22:08:56.301Z,9.03
2022-09-18T22:11:27.245Z,8.99
2022-09-18T22:13:58.515Z,8.94
2022-09-18T22:16:29.418Z,8.88
2022-09-18T22:18:58.654Z,8.87
2022-09-18T22:21:31.029Z,8.84
2022-09-18T22:24:08.679Z,8.87
2022-09-18T22:26:40.250Z,8.79
2022-09-18T22:29:15.256Z,8.69
2022-09-18T22:31:46.477Z,8.70
2022-09-18T22:34:17.378Z,8.62
2022-09-18T22:36:48.532Z,8.68
2022-09-18T22:39:19.394Z,8.61
2022-09-18T22:41:49.276Z,8.56
2022-09-18T22:44:20.490Z,8.58
2022-09-18T22:46:51.979Z,8.62
2022-09-18T22:49:22.659Z,8.50
2022-09-18T22:51:53.318Z,8.55
2022-09-18T22:54:26.431Z,8.51
2022-09-18T22:56:56.871Z,8.46
2022-09-18T22:59:28.492Z,8.44
2022-09-18T23:02:00.135Z,8.39
2022-09-18T23:04:31.274Z,8.38
2022-09-18T23:07:02.462Z,8.47
2022-09-18T23:09:31.988Z,8.38
2022-09-18T23:12:01.324Z,8.32
2022-09-18T23:14:32.206Z,8.35
2022-09-18T23:17:03.104Z,8.35
2022-09-18T23:19:34.967Z,8.42
2022-09-18T23:22:06.368Z,8.35
2022-09-18T23:24:35.455Z,8.31
2022-09-18T23:27:04.549Z,8.27
2022-09-18T23:29:35.325Z,8.19
2022-09-18T23:32:04.704Z,8.21
2022-09-18T23:34:34.422Z,8.13
2022-09-18T23:37:04.854Z,8.13
2022-09-18T23:39:34.963Z,8.08
2022-09-18T23:42:05.691Z,8.11
2022-09-18T23:44:34.896Z,8.09
2022-09-18T23:47:04.427Z,8.06
2022-09-18T23:49:33.689Z,8.02
2022-09-18T23:52:04.452Z,8.01
2022-09-18T23:54:33.765Z,8.02
2022-09-18T23:57:02.718Z,7.98
2022-09-18T23:59:32.014Z,8.00
